sensor_id;sensor_type;location;lat;lon;timestamp;P1;durP1;ratioP1;P2;durP2;ratioP2
23519;SDS011;11936;50.820;4.336;2023-11-21T00:01:16;25.63;;;16.90;;
23519;SDS011;11936;50.820;4.336;2023-11-21T00:03:42;27.48;;;15.75;;
23519;SDS011;11936;50.820;4.336;2023-11-21T00:06:08;30.30;;;17.33;;
23519;SDS011;11936;50.820;4.336;2023-11-21T00:08:35;27.17;;;16.08;;
23519;SDS011;11936;50.820;4.336;2023-11-21T00:11:01;28.13;;;16.63;;
23519;SDS011;11936;50.820;4.336;2023-11-21T00:13:29;29.98;;;16.70;;
23519;SDS011;11936;50.820;4.336;2023-11-21T00:15:55;27.52;;;16.65;;
23519;SDS011;11936;50.820;4.336;2023-11-21T00:18:20;27.90;;;16.75;;
23519;SDS011;11936;50.820;4.336;2023-11-21T00:20:46;29.38;;;16.92;;
23519;SDS011;11936;50.820;4.336;2023-11-21T00:23:11;26.88;;;16.95;;
23519;SDS011;11936;50.820;4.336;2023-11-21T00:25:37;27.02;;;16.75;;
23519;SDS011;11936;50.820;4.336;2023-11-21T00:28:03;28.55;;;16.55;;
23519;SDS011;11936;50.820;4.336;2023-11-21T00:30:28;28.95;;;16.55;;
23519;SDS011;11936;50.820;4.336;2023-11-21T00:32:55;29.73;;;16.40;;
23519;SDS011;11936;50.820;4.336;2023-11-21T00:35:20;29.88;;;16.45;;
23519;SDS011;11936;50.820;4.336;2023-11-21T00:37:46;25.83;;;16.08;;
23519;SDS011;11936;50.820;4.336;2023-11-21T00:40:12;28.45;;;16.25;;
23519;SDS011;11936;50.820;4.336;2023-11-21T00:42:40;30.23;;;16.60;;
23519;SDS011;11936;50.820;4.336;2023-11-21T00:45:06;30.13;;;15.95;;
23519;SDS011;11936;50.820;4.336;2023-11-21T00:47:32;23.85;;;15.10;;
23519;SDS011;11936;50.820;4.336;2023-11-21T00:49:57;25.38;;;16.27;;
23519;SDS011;11936;50.820;4.336;2023-11-21T00:52:23;26.42;;;15.73;;
23519;SDS011;11936;50.820;4.336;2023-11-21T00:54:49;23.73;;;15.80;;
23519;SDS011;11936;50.820;4.336;2023-11-21T00:57:14;32.67;;;16.98;;
23519;SDS011;11936;50.820;4.336;2023-11-21T00:59:40;23.58;;;14.52;;
23519;SDS011;11936;50.820;4.336;2023-11-21T01:02:05;22.60;;;14.02;;
23519;SDS011;11936;50.820;4.336;2023-11-21T01:04:35;19.45;;;13.25;;
23519;SDS011;11936;50.820;4.336;2023-11-21T01:07:00;24.20;;;15.18;;
23519;SDS011;11936;50.820;4.336;2023-11-21T01:09:26;26.55;;;15.38;;
23519;SDS011;11936;50.820;4.336;2023-11-21T01:11:53;22.00;;;13.95;;
23519;SDS011;11936;50.820;4.336;2023-11-21T01:14:18;21.98;;;13.98;;
23519;SDS011;11936;50.820;4.336;2023-11-21T01:16:44;23.58;;;13.60;;
23519;SDS011;11936;50.820;4.336;2023-11-21T01:19:10;25.15;;;14.68;;
23519;SDS011;11936;50.820;4.336;2023-11-21T01:21:35;24.30;;;13.10;;
23519;SDS011;11936;50.820;4.336;2023-11-21T01:24:01;24.27;;;14.90;;
23519;SDS011;11936;50.820;4.336;2023-11-21T01:26:27;25.90;;;14.40;;
23519;SDS011;11936;50.820;4.336;2023-11-21T01:28:53;23.67;;;13.68;;
23519;SDS011;11936;50.820;4.336;2023-11-21T01:31:19;20.83;;;13.82;;
23519;SDS011;11936;50.820;4.336;2023-11-21T01:33:45;19.55;;;12.82;;
23519;SDS011;11936;50.820;4.336;2023-11-21T01:36:11;19.83;;;12.98;;
23519;SDS011;11936;50.820;4.336;2023-11-21T01:38:36;22.23;;;14.73;;
23519;SDS011;11936;50.820;4.336;2023-11-21T01:41:02;21.30;;;14.48;;
23519;SDS011;11936;50.820;4.336;2023-11-21T01:43:29;23.42;;;14.88;;
23519;SDS011;11936;50.820;4.336;2023-11-21T01:45:57;22.02;;;14.15;;
23519;SDS011;11936;50.820;4.336;2023-11-21T01:48:23;19.45;;;13.25;;
23519;SDS011;11936;50.820;4.336;2023-11-21T01:50:50;24.42;;;14.20;;
23519;SDS011;11936;50.820;4.336;2023-11-21T01:53:16;21.90;;;13.75;;
23519;SDS011;11936;50.820;4.336;2023-11-21T01:55:43;23.30;;;13.82;;
23519;SDS011;11936;50.820;4.336;2023-11-21T01:58:10;20.77;;;14.15;;
23519;SDS011;11936;50.820;4.336;2023-11-21T02:00:37;22.30;;;14.13;;
23519;SDS011;11936;50.820;4.336;2023-11-21T02:03:03;24.35;;;13.80;;
23519;SDS011;11936;50.820;4.336;2023-11-21T02:05:29;21.33;;;13.25;;
23519;SDS011;11936;50.820;4.336;2023-11-21T02:07:54;21.55;;;14.68;;
23519;SDS011;11936;50.820;4.336;2023-11-21T02:10:21;23.02;;;14.38;;
23519;SDS011;11936;50.820;4.336;2023-11-21T02:12:49;22.73;;;14.57;;
23519;SDS011;11936;50.820;4.336;2023-11-21T02:15:15;20.27;;;13.80;;
23519;SDS011;11936;50.820;4.336;2023-11-21T02:17:48;23.83;;;13.82;;
23519;SDS011;11936;50.820;4.336;2023-11-21T02:20:18;24.15;;;15.80;;
23519;SDS011;11936;50.820;4.336;2023-11-21T02:22:55;21.92;;;14.35;;
23519;SDS011;11936;50.820;4.336;2023-11-21T02:25:28;22.83;;;13.40;;
23519;SDS011;11936;50.820;4.336;2023-11-21T02:27:55;22.95;;;13.27;;
23519;SDS011;11936;50.820;4.336;2023-11-21T02:30:25;24.95;;;13.73;;
23519;SDS011;11936;50.820;4.336;2023-11-21T02:32:51;22.25;;;14.43;;
23519;SDS011;11936;50.820;4.336;2023-11-21T02:35:20;21.60;;;13.63;;
23519;SDS011;11936;50.820;4.336;2023-11-21T02:37:50;24.17;;;13.45;;
23519;SDS011;11936;50.820;4.336;2023-11-21T02:40:17;21.33;;;13.77;;
23519;SDS011;11936;50.820;4.336;2023-11-21T02:42:51;22.85;;;13.85;;
23519;SDS011;11936;50.820;4.336;2023-11-21T02:45:18;20.60;;;13.27;;
23519;SDS011;11936;50.820;4.336;2023-11-21T02:47:46;21.80;;;13.70;;
23519;SDS011;11936;50.820;4.336;2023-11-21T02:50:12;23.77;;;13.25;;
23519;SDS011;11936;50.820;4.336;2023-11-21T02:52:38;21.25;;;13.23;;
23519;SDS011;11936;50.820;4.336;2023-11-21T02:55:05;25.77;;;14.02;;
23519;SDS011;11936;50.820;4.336;2023-11-21T02:57:32;21.00;;;13.10;;
23519;SDS011;11936;50.820;4.336;2023-11-21T02:59:58;18.42;;;11.90;;
23519;SDS011;11936;50.820;4.336;2023-11-21T03:02:25;20.23;;;11.18;;
23519;SDS011;11936;50.820;4.336;2023-11-21T03:04:50;17.33;;;10.70;;
23519;SDS011;11936;50.820;4.336;2023-11-21T03:07:16;16.75;;;10.35;;
23519;SDS011;11936;50.820;4.336;2023-11-21T03:09:44;16.57;;;11.30;;
23519;SDS011;11936;50.820;4.336;2023-11-21T03:12:10;20.77;;;13.07;;
23519;SDS011;11936;50.820;4.336;2023-11-21T03:14:37;20.27;;;12.70;;
23519;SDS011;11936;50.820;4.336;2023-11-21T03:17:03;18.13;;;11.60;;
23519;SDS011;11936;50.820;4.336;2023-11-21T03:19:29;17.90;;;11.85;;
23519;SDS011;11936;50.820;4.336;2023-11-21T03:21:55;20.33;;;13.52;;
23519;SDS011;11936;50.820;4.336;2023-11-21T03:24:21;23.55;;;14.70;;
23519;SDS011;11936;50.820;4.336;2023-11-21T03:26:47;29.40;;;16.20;;
23519;SDS011;11936;50.820;4.336;2023-11-21T03:29:13;26.60;;;14.27;;
23519;SDS011;11936;50.820;4.336;2023-11-21T03:31:39;26.15;;;14.88;;
23519;SDS011;11936;50.820;4.336;2023-11-21T03:34:05;23.25;;;13.85;;
23519;SDS011;11936;50.820;4.336;2023-11-21T03:36:31;22.77;;;14.25;;
23519;SDS011;11936;50.820;4.336;2023-11-21T03:38:57;22.50;;;14.20;;
23519;SDS011;11936;50.820;4.336;2023-11-21T03:41:22;24.38;;;15.27;;
23519;SDS011;11936;50.820;4.336;2023-11-21T03:43:48;21.55;;;14.73;;
23519;SDS011;11936;50.820;4.336;2023-11-21T03:46:13;19.92;;;14.45;;
23519;SDS011;11936;50.820;4.336;2023-11-21T03:48:39;25.73;;;14.40;;
23519;SDS011;11936;50.820;4.336;2023-11-21T03:51:05;24.58;;;14.35;;
23519;SDS011;11936;50.820;4.336;2023-11-21T03:53:31;21.60;;;14.82;;
23519;SDS011;11936;50.820;4.336;2023-11-21T03:55:57;23.85;;;14.65;;
23519;SDS011;11936;50.820;4.336;2023-11-21T03:58:22;19.80;;;13.57;;
23519;SDS011;11936;50.820;4.336;2023-11-21T04:00:48;24.70;;;15.13;;
23519;SDS011;11936;50.820;4.336;2023-11-21T04:03:14;23.77;;;14.85;;
23519;SDS011;11936;50.820;4.336;2023-11-21T04:05:40;21.60;;;14.90;;
23519;SDS011;11936;50.820;4.336;2023-11-21T04:08:06;23.08;;;14.25;;
23519;SDS011;11936;50.820;4.336;2023-11-21T04:10:32;21.50;;;14.32;;
23519;SDS011;11936;50.820;4.336;2023-11-21T04:12:58;22.35;;;14.43;;
23519;SDS011;11936;50.820;4.336;2023-11-21T04:15:23;26.25;;;14.70;;
23519;SDS011;11936;50.820;4.336;2023-11-21T04:17:49;20.13;;;14.18;;
23519;SDS011;11936;50.820;4.336;2023-11-21T04:20:14;22.90;;;13.13;;
23519;SDS011;11936;50.820;4.336;2023-11-21T04:22:40;23.65;;;13.85;;
23519;SDS011;11936;50.820;4.336;2023-11-21T04:25:09;20.85;;;14.13;;
23519;SDS011;11936;50.820;4.336;2023-11-21T04:27:36;22.40;;;15.07;;
23519;SDS011;11936;50.820;4.336;2023-11-21T04:30:03;24.00;;;15.32;;
23519;SDS011;11936;50.820;4.336;2023-11-21T04:32:30;23.00;;;14.43;;
23519;SDS011;11936;50.820;4.336;2023-11-21T04:34:55;21.08;;;13.90;;
23519;SDS011;11936;50.820;4.336;2023-11-21T04:37:21;30.17;;;15.07;;
23519;SDS011;11936;50.820;4.336;2023-11-21T04:39:47;20.55;;;14.13;;
23519;SDS011;11936;50.820;4.336;2023-11-21T04:42:13;25.48;;;13.70;;
23519;SDS011;11936;50.820;4.336;2023-11-21T04:44:38;27.88;;;13.68;;
23519;SDS011;11936;50.820;4.336;2023-11-21T04:47:06;27.58;;;14.20;;
23519;SDS011;11936;50.820;4.336;2023-11-21T04:49:32;24.33;;;14.05;;
23519;SDS011;11936;50.820;4.336;2023-11-21T04:51:58;22.50;;;13.18;;
23519;SDS011;11936;50.820;4.336;2023-11-21T04:54:23;24.20;;;13.43;;
23519;SDS011;11936;50.820;4.336;2023-11-21T04:56:49;22.63;;;12.88;;
23519;SDS011;11936;50.820;4.336;2023-11-21T04:59:15;19.50;;;12.82;;
23519;SDS011;11936;50.820;4.336;2023-11-21T05:01:41;20.02;;;12.75;;
23519;SDS011;11936;50.820;4.336;2023-11-21T05:04:06;17.00;;;12.35;;
23519;SDS011;11936;50.820;4.336;2023-11-21T05:06:33;23.65;;;12.40;;
23519;SDS011;11936;50.820;4.336;2023-11-21T05:08:59;23.50;;;12.98;;
23519;SDS011;11936;50.820;4.336;2023-11-21T05:11:25;21.25;;;11.63;;
23519;SDS011;11936;50.820;4.336;2023-11-21T05:13:51;20.30;;;13.00;;
23519;SDS011;11936;50.820;4.336;2023-11-21T05:16:18;20.10;;;12.00;;
23519;SDS011;11936;50.820;4.336;2023-11-21T05:18:44;20.08;;;12.82;;
23519;SDS011;11936;50.820;4.336;2023-11-21T05:21:10;22.45;;;12.43;;
23519;SDS011;11936;50.820;4.336;2023-11-21T05:23:35;23.67;;;12.55;;
23519;SDS011;11936;50.820;4.336;2023-11-21T05:26:02;19.05;;;11.90;;
23519;SDS011;11936;50.820;4.336;2023-11-21T05:28:28;20.15;;;11.57;;
23519;SDS011;11936;50.820;4.336;2023-11-21T05:30:53;18.23;;;11.57;;
23519;SDS011;11936;50.820;4.336;2023-11-21T05:33:19;20.95;;;11.52;;
23519;SDS011;11936;50.820;4.336;2023-11-21T05:35:45;19.70;;;11.90;;
23519;SDS011;11936;50.820;4.336;2023-11-21T05:38:13;22.38;;;12.45;;
23519;SDS011;11936;50.820;4.336;2023-11-21T05:40:39;24.08;;;13.38;;
23519;SDS011;11936;50.820;4.336;2023-11-21T05:43:04;21.73;;;12.38;;
23519;SDS011;11936;50.820;4.336;2023-11-21T05:45:30;20.63;;;12.95;;
23519;SDS011;11936;50.820;4.336;2023-11-21T05:47:56;16.27;;;12.35;;
23519;SDS011;11936;50.820;4.336;2023-11-21T05:50:22;25.38;;;12.63;;
23519;SDS011;11936;50.820;4.336;2023-11-21T05:52:48;21.08;;;11.73;;
23519;SDS011;11936;50.820;4.336;2023-11-21T05:55:14;22.55;;;12.75;;
23519;SDS011;11936;50.820;4.336;2023-11-21T05:57:41;22.55;;;13.27;;
23519;SDS011;11936;50.820;4.336;2023-11-21T06:00:11;21.13;;;13.05;;
23519;SDS011;11936;50.820;4.336;2023-11-21T06:02:48;21.13;;;12.13;;
23519;SDS011;11936;50.820;4.336;2023-11-21T06:05:20;23.48;;;12.93;;
23519;SDS011;11936;50.820;4.336;2023-11-21T06:07:48;20.17;;;11.88;;
23519;SDS011;11936;50.820;4.336;2023-11-21T06:10:14;22.33;;;12.98;;
23519;SDS011;11936;50.820;4.336;2023-11-21T06:12:42;25.92;;;12.50;;
23519;SDS011;11936;50.820;4.336;2023-11-21T06:15:08;18.23;;;11.90;;
23519;SDS011;11936;50.820;4.336;2023-11-21T06:17:38;18.40;;;11.57;;
23519;SDS011;11936;50.820;4.336;2023-11-21T06:20:08;17.48;;;11.43;;
23519;SDS011;11936;50.820;4.336;2023-11-21T06:22:38;20.40;;;12.98;;
23519;SDS011;11936;50.820;4.336;2023-11-21T06:25:04;19.95;;;12.90;;
23519;SDS011;11936;50.820;4.336;2023-11-21T06:27:33;21.10;;;11.95;;
23519;SDS011;11936;50.820;4.336;2023-11-21T06:30:04;23.55;;;12.70;;
23519;SDS011;11936;50.820;4.336;2023-11-21T06:32:31;22.92;;;13.23;;
23519;SDS011;11936;50.820;4.336;2023-11-21T06:34:57;20.77;;;12.80;;
23519;SDS011;11936;50.820;4.336;2023-11-21T06:37:26;25.00;;;13.75;;
23519;SDS011;11936;50.820;4.336;2023-11-21T06:39:52;18.38;;;12.32;;
23519;SDS011;11936;50.820;4.336;2023-11-21T06:42:18;16.80;;;13.02;;
23519;SDS011;11936;50.820;4.336;2023-11-21T06:44:47;17.38;;;11.65;;
23519;SDS011;11936;50.820;4.336;2023-11-21T06:47:13;21.52;;;12.77;;
23519;SDS011;11936;50.820;4.336;2023-11-21T06:49:41;20.20;;;14.50;;
23519;SDS011;11936;50.820;4.336;2023-11-21T06:52:07;17.67;;;12.10;;
23519;SDS011;11936;50.820;4.336;2023-11-21T06:54:33;20.45;;;12.15;;
23519;SDS011;11936;50.820;4.336;2023-11-21T06:56:59;19.63;;;12.63;;
23519;SDS011;11936;50.820;4.336;2023-11-21T06:59:25;22.92;;;13.45;;
23519;SDS011;11936;50.820;4.336;2023-11-21T07:01:51;22.20;;;11.98;;
23519;SDS011;11936;50.820;4.336;2023-11-21T07:04:16;20.35;;;12.68;;
23519;SDS011;11936;50.820;4.336;2023-11-21T07:06:43;19.83;;;13.57;;
23519;SDS011;11936;50.820;4.336;2023-11-21T07:09:09;21.30;;;11.77;;
23519;SDS011;11936;50.820;4.336;2023-11-21T07:11:39;25.30;;;13.25;;
23519;SDS011;11936;50.820;4.336;2023-11-21T07:14:05;21.73;;;13.38;;
23519;SDS011;11936;50.820;4.336;2023-11-21T07:16:35;20.45;;;13.02;;
23519;SDS011;11936;50.820;4.336;2023-11-21T07:19:03;25.23;;;13.40;;
23519;SDS011;11936;50.820;4.336;2023-11-21T07:21:32;27.13;;;13.48;;
23519;SDS011;11936;50.820;4.336;2023-11-21T07:23:58;21.55;;;13.00;;
23519;SDS011;11936;50.820;4.336;2023-11-21T07:26:28;32.50;;;13.88;;
23519;SDS011;11936;50.820;4.336;2023-11-21T07:28:54;24.33;;;14.23;;
23519;SDS011;11936;50.820;4.336;2023-11-21T07:31:20;19.10;;;12.93;;
23519;SDS011;11936;50.820;4.336;2023-11-21T07:33:47;23.98;;;13.35;;
23519;SDS011;11936;50.820;4.336;2023-11-21T07:36:16;22.95;;;14.20;;
23519;SDS011;11936;50.820;4.336;2023-11-21T07:38:48;20.30;;;12.00;;
23519;SDS011;11936;50.820;4.336;2023-11-21T07:41:14;21.38;;;14.05;;
23519;SDS011;11936;50.820;4.336;2023-11-21T07:43:44;25.27;;;13.57;;
23519;SDS011;11936;50.820;4.336;2023-11-21T07:46:10;27.10;;;14.55;;
23519;SDS011;11936;50.820;4.336;2023-11-21T07:48:37;28.83;;;14.48;;
23519;SDS011;11936;50.820;4.336;2023-11-21T07:51:03;30.25;;;14.18;;
23519;SDS011;11936;50.820;4.336;2023-11-21T07:53:29;25.58;;;14.00;;
23519;SDS011;11936;50.820;4.336;2023-11-21T07:55:55;29.45;;;16.63;;
23519;SDS011;11936;50.820;4.336;2023-11-21T07:58:21;29.67;;;15.52;;
23519;SDS011;11936;50.820;4.336;2023-11-21T08:00:47;24.55;;;14.30;;
23519;SDS011;11936;50.820;4.336;2023-11-21T08:03:14;31.60;;;16.75;;
23519;SDS011;11936;50.820;4.336;2023-11-21T08:05:39;25.90;;;14.88;;
23519;SDS011;11936;50.820;4.336;2023-11-21T08:08:05;27.20;;;15.75;;
23519;SDS011;11936;50.820;4.336;2023-11-21T08:10:31;26.40;;;15.27;;
23519;SDS011;11936;50.820;4.336;2023-11-21T08:12:56;28.67;;;15.25;;
23519;SDS011;11936;50.820;4.336;2023-11-21T08:15:22;31.70;;;16.92;;
23519;SDS011;11936;50.820;4.336;2023-11-21T08:17:47;31.88;;;14.88;;
23519;SDS011;11936;50.820;4.336;2023-11-21T08:20:13;32.10;;;15.55;;
23519;SDS011;11936;50.820;4.336;2023-11-21T08:22:41;34.13;;;15.83;;
23519;SDS011;11936;50.820;4.336;2023-11-21T08:25:07;28.52;;;15.63;;
23519;SDS011;11936;50.820;4.336;2023-11-21T08:27:34;34.47;;;15.85;;
23519;SDS011;11936;50.820;4.336;2023-11-21T08:29:59;31.35;;;16.30;;
23519;SDS011;11936;50.820;4.336;2023-11-21T08:32:26;32.10;;;15.38;;
23519;SDS011;11936;50.820;4.336;2023-11-21T08:34:51;31.10;;;17.13;;
23519;SDS011;11936;50.820;4.336;2023-11-21T08:37:17;36.30;;;16.92;;
23519;SDS011;11936;50.820;4.336;2023-11-21T08:39:46;32.80;;;16.55;;
23519;SDS011;11936;50.820;4.336;2023-11-21T08:42:13;36.92;;;15.65;;
23519;SDS011;11936;50.820;4.336;2023-11-21T08:44:39;32.72;;;16.05;;
23519;SDS011;11936;50.820;4.336;2023-11-21T08:47:05;26.40;;;15.75;;
23519;SDS011;11936;50.820;4.336;2023-11-21T08:49:31;29.75;;;16.55;;
23519;SDS011;11936;50.820;4.336;2023-11-21T08:51:57;32.15;;;17.20;;
23519;SDS011;11936;50.820;4.336;2023-11-21T08:54:24;33.80;;;16.23;;
23519;SDS011;11936;50.820;4.336;2023-11-21T08:56:53;38.60;;;17.77;;
23519;SDS011;11936;50.820;4.336;2023-11-21T08:59:19;34.47;;;17.25;;
23519;SDS011;11936;50.820;4.336;2023-11-21T09:01:46;33.35;;;16.85;;
23519;SDS011;11936;50.820;4.336;2023-11-21T09:04:12;37.40;;;17.80;;
23519;SDS011;11936;50.820;4.336;2023-11-21T09:06:38;34.65;;;16.90;;
23519;SDS011;11936;50.820;4.336;2023-11-21T09:09:04;43.00;;;18.17;;
23519;SDS011;11936;50.820;4.336;2023-11-21T09:11:31;38.50;;;18.00;;
23519;SDS011;11936;50.820;4.336;2023-11-21T09:13:59;44.72;;;19.30;;
23519;SDS011;11936;50.820;4.336;2023-11-21T09:16:25;34.80;;;17.83;;
23519;SDS011;11936;50.820;4.336;2023-11-21T09:18:50;30.50;;;16.23;;
23519;SDS011;11936;50.820;4.336;2023-11-21T09:21:16;37.72;;;18.65;;
23519;SDS011;11936;50.820;4.336;2023-11-21T09:23:43;35.22;;;17.40;;
23519;SDS011;11936;50.820;4.336;2023-11-21T09:26:10;34.60;;;17.87;;
23519;SDS011;11936;50.820;4.336;2023-11-21T09:28:35;34.75;;;18.10;;
23519;SDS011;11936;50.820;4.336;2023-11-21T09:31:06;40.70;;;17.20;;
23519;SDS011;11936;50.820;4.336;2023-11-21T09:33:34;29.58;;;16.92;;
23519;SDS011;11936;50.820;4.336;2023-11-21T09:35:59;35.75;;;16.88;;
23519;SDS011;11936;50.820;4.336;2023-11-21T09:38:26;32.00;;;17.15;;
23519;SDS011;11936;50.820;4.336;2023-11-21T09:40:53;37.20;;;18.00;;
23519;SDS011;11936;50.820;4.336;2023-11-21T09:43:20;36.72;;;18.80;;
23519;SDS011;11936;50.820;4.336;2023-11-21T09:45:47;35.00;;;17.58;;
23519;SDS011;11936;50.820;4.336;2023-11-21T09:48:19;34.15;;;17.05;;
23519;SDS011;11936;50.820;4.336;2023-11-21T09:50:46;33.30;;;16.60;;
23519;SDS011;11936;50.820;4.336;2023-11-21T09:53:13;45.17;;;18.15;;
23519;SDS011;11936;50.820;4.336;2023-11-21T09:55:44;30.83;;;15.40;;
23519;SDS011;11936;50.820;4.336;2023-11-21T09:58:11;34.53;;;17.70;;
23519;SDS011;11936;50.820;4.336;2023-11-21T10:00:40;35.63;;;17.30;;
23519;SDS011;11936;50.820;4.336;2023-11-21T10:03:07;40.28;;;18.15;;
23519;SDS011;11936;50.820;4.336;2023-11-21T10:05:33;34.90;;;17.25;;
23519;SDS011;11936;50.820;4.336;2023-11-21T10:07:59;25.67;;;16.30;;
23519;SDS011;11936;50.820;4.336;2023-11-21T10:10:25;31.15;;;17.20;;
23519;SDS011;11936;50.820;4.336;2023-11-21T10:12:57;33.70;;;17.65;;
23519;SDS011;11936;50.820;4.336;2023-11-21T10:15:26;37.60;;;17.65;;
23519;SDS011;11936;50.820;4.336;2023-11-21T10:17:52;32.85;;;17.20;;
23519;SDS011;11936;50.820;4.336;2023-11-21T10:20:19;24.98;;;14.07;;
23519;SDS011;11936;50.820;4.336;2023-11-21T10:22:45;24.52;;;14.07;;
23519;SDS011;11936;50.820;4.336;2023-11-21T10:25:11;23.50;;;14.18;;
23519;SDS011;11936;50.820;4.336;2023-11-21T10:27:39;18.70;;;12.43;;
23519;SDS011;11936;50.820;4.336;2023-11-21T10:30:09;17.63;;;11.05;;
23519;SDS011;11936;50.820;4.336;2023-11-21T10:32:38;17.50;;;11.68;;
23519;SDS011;11936;50.820;4.336;2023-11-21T10:35:05;17.90;;;11.55;;
23519;SDS011;11936;50.820;4.336;2023-11-21T10:37:35;18.75;;;12.63;;
23519;SDS011;11936;50.820;4.336;2023-11-21T10:40:04;17.02;;;11.90;;
23519;SDS011;11936;50.820;4.336;2023-11-21T10:42:37;17.80;;;12.63;;
23519;SDS011;11936;50.820;4.336;2023-11-21T10:45:04;15.35;;;11.40;;
23519;SDS011;11936;50.820;4.336;2023-11-21T10:47:37;16.30;;;11.70;;
23519;SDS011;11936;50.820;4.336;2023-11-21T10:50:07;24.58;;;12.88;;
23519;SDS011;11936;50.820;4.336;2023-11-21T10:52:36;21.17;;;12.77;;
23519;SDS011;11936;50.820;4.336;2023-11-21T10:55:13;17.33;;;12.65;;
23519;SDS011;11936;50.820;4.336;2023-11-21T11:00:09;20.10;;;12.38;;
23519;SDS011;11936;50.820;4.336;2023-11-21T11:05:04;19.95;;;13.25;;
23519;SDS011;11936;50.820;4.336;2023-11-21T11:07:31;23.38;;;13.50;;
23519;SDS011;11936;50.820;4.336;2023-11-21T11:09:59;21.40;;;14.30;;
23519;SDS011;11936;50.820;4.336;2023-11-21T11:12:25;21.45;;;14.73;;
23519;SDS011;11936;50.820;4.336;2023-11-21T11:14:51;29.27;;;16.55;;
23519;SDS011;11936;50.820;4.336;2023-11-21T11:17:18;22.80;;;16.38;;
23519;SDS011;11936;50.820;4.336;2023-11-21T11:19:45;24.23;;;17.05;;
23519;SDS011;11936;50.820;4.336;2023-11-21T11:22:32;25.40;;;16.95;;
23519;SDS011;11936;50.820;4.336;2023-11-21T11:28:11;27.58;;;17.48;;
23519;SDS011;11936;50.820;4.336;2023-11-21T11:34:29;35.60;;;20.85;;
23519;SDS011;11936;50.820;4.336;2023-11-21T11:37:07;34.78;;;21.65;;
23519;SDS011;11936;50.820;4.336;2023-11-21T11:39:41;34.92;;;18.67;;
23519;SDS011;11936;50.820;4.336;2023-11-21T11:42:08;27.33;;;18.05;;
23519;SDS011;11936;50.820;4.336;2023-11-21T11:47:31;23.48;;;16.75;;
23519;SDS011;11936;50.820;4.336;2023-11-21T11:50:03;21.52;;;16.90;;
23519;SDS011;11936;50.820;4.336;2023-11-21T11:57:41;18.88;;;13.77;;
23519;SDS011;11936;50.820;4.336;2023-11-21T12:00:08;13.13;;;11.32;;
23519;SDS011;11936;50.820;4.336;2023-11-21T12:02:35;17.85;;;12.35;;
23519;SDS011;11936;50.820;4.336;2023-11-21T12:05:07;13.30;;;10.75;;
23519;SDS011;11936;50.820;4.336;2023-11-21T12:07:44;14.05;;;8.85;;
23519;SDS011;11936;50.820;4.336;2023-11-21T12:10:14;16.40;;;10.73;;
23519;SDS011;11936;50.820;4.336;2023-11-21T12:12:46;12.05;;;9.02;;
23519;SDS011;11936;50.820;4.336;2023-11-21T12:15:13;14.30;;;8.85;;
23519;SDS011;11936;50.820;4.336;2023-11-21T12:17:42;9.40;;;8.50;;
23519;SDS011;11936;50.820;4.336;2023-11-21T12:20:09;9.20;;;7.97;;
23519;SDS011;11936;50.820;4.336;2023-11-21T12:22:45;10.45;;;8.68;;
23519;SDS011;11936;50.820;4.336;2023-11-21T12:25:15;11.80;;;8.77;;
23519;SDS011;11936;50.820;4.336;2023-11-21T12:27:46;11.82;;;7.97;;
23519;SDS011;11936;50.820;4.336;2023-11-21T12:30:14;11.00;;;8.85;;
23519;SDS011;11936;50.820;4.336;2023-11-21T12:32:41;15.48;;;9.82;;
23519;SDS011;11936;50.820;4.336;2023-11-21T12:35:08;11.25;;;8.18;;
23519;SDS011;11936;50.820;4.336;2023-11-21T12:37:38;12.00;;;7.65;;
23519;SDS011;11936;50.820;4.336;2023-11-21T12:40:05;11.50;;;7.25;;
23519;SDS011;11936;50.820;4.336;2023-11-21T12:42:37;12.40;;;8.43;;
23519;SDS011;11936;50.820;4.336;2023-11-21T12:45:07;10.20;;;6.45;;
23519;SDS011;11936;50.820;4.336;2023-11-21T12:48:13;12.85;;;6.85;;
23519;SDS011;11936;50.820;4.336;2023-11-21T12:50:38;10.45;;;6.18;;
23519;SDS011;11936;50.820;4.336;2023-11-21T12:53:04;9.57;;;5.80;;
23519;SDS011;11936;50.820;4.336;2023-11-21T12:55:34;9.55;;;5.75;;
23519;SDS011;11936;50.820;4.336;2023-11-21T12:58:07;11.05;;;6.40;;
23519;SDS011;11936;50.820;4.336;2023-11-21T13:00:38;7.32;;;5.97;;
23519;SDS011;11936;50.820;4.336;2023-11-21T13:03:07;21.13;;;6.88;;
23519;SDS011;11936;50.820;4.336;2023-11-21T13:05:38;9.98;;;6.30;;
23519;SDS011;11936;50.820;4.336;2023-11-21T13:08:09;8.52;;;6.07;;
23519;SDS011;11936;50.820;4.336;2023-11-21T13:10:38;8.82;;;6.28;;
23519;SDS011;11936;50.820;4.336;2023-11-21T13:13:07;10.85;;;6.78;;
23519;SDS011;11936;50.820;4.336;2023-11-21T13:15:34;12.77;;;7.18;;
23519;SDS011;11936;50.820;4.336;2023-11-21T13:18:05;12.25;;;8.57;;
23519;SDS011;11936;50.820;4.336;2023-11-21T13:20:32;11.55;;;7.68;;
23519;SDS011;11936;50.820;4.336;2023-11-21T13:22:57;11.50;;;7.57;;
23519;SDS011;11936;50.820;4.336;2023-11-21T13:25:30;20.63;;;8.30;;
23519;SDS011;11936;50.820;4.336;2023-11-21T13:27:59;12.77;;;8.45;;
23519;SDS011;11936;50.820;4.336;2023-11-21T13:30:25;10.77;;;6.97;;
23519;SDS011;11936;50.820;4.336;2023-11-21T13:32:52;15.15;;;7.57;;
23519;SDS011;11936;50.820;4.336;2023-11-21T13:35:22;14.73;;;7.88;;
23519;SDS011;11936;50.820;4.336;2023-11-21T13:38:06;11.63;;;7.43;;
23519;SDS011;11936;50.820;4.336;2023-11-21T13:40:34;11.63;;;8.43;;
23519;SDS011;11936;50.820;4.336;2023-11-21T13:43:07;17.75;;;8.85;;
23519;SDS011;11936;50.820;4.336;2023-11-21T13:45:38;10.60;;;7.85;;
23519;SDS011;11936;50.820;4.336;2023-11-21T13:48:08;9.25;;;8.27;;
23519;SDS011;11936;50.820;4.336;2023-11-21T13:50:44;9.23;;;7.70;;
23519;SDS011;11936;50.820;4.336;2023-11-21T13:53:32;11.02;;;8.57;;
23519;SDS011;11936;50.820;4.336;2023-11-21T13:55:58;8.57;;;7.10;;
23519;SDS011;11936;50.820;4.336;2023-11-21T13:58:24;7.88;;;6.57;;
23519;SDS011;11936;50.820;4.336;2023-11-21T14:01:04;6.95;;;6.28;;
23519;SDS011;11936;50.820;4.336;2023-11-21T14:03:38;8.32;;;5.20;;
23519;SDS011;11936;50.820;4.336;2023-11-21T14:06:15;11.57;;;6.65;;
23519;SDS011;11936;50.820;4.336;2023-11-21T14:08:47;10.93;;;6.82;;
23519;SDS011;11936;50.820;4.336;2023-11-21T14:11:13;8.88;;;6.63;;
23519;SDS011;11936;50.820;4.336;2023-11-21T14:13:42;8.52;;;7.10;;
23519;SDS011;11936;50.820;4.336;2023-11-21T14:16:12;6.57;;;5.80;;
23519;SDS011;11936;50.820;4.336;2023-11-21T14:18:39;5.63;;;5.00;;
23519;SDS011;11936;50.820;4.336;2023-11-21T14:21:17;8.20;;;4.68;;
23519;SDS011;11936;50.820;4.336;2023-11-21T14:23:43;9.50;;;4.60;;
23519;SDS011;11936;50.820;4.336;2023-11-21T14:26:11;6.93;;;4.88;;
23519;SDS011;11936;50.820;4.336;2023-11-21T14:28:40;7.85;;;4.05;;
23519;SDS011;11936;50.820;4.336;2023-11-21T14:33:40;4.38;;;3.97;;
23519;SDS011;11936;50.820;4.336;2023-11-21T14:36:06;7.82;;;4.22;;
23519;SDS011;11936;50.820;4.336;2023-11-21T14:38:35;6.75;;;3.97;;
23519;SDS011;11936;50.820;4.336;2023-11-21T14:41:05;5.47;;;4.97;;
23519;SDS011;11936;50.820;4.336;2023-11-21T14:46:00;9.40;;;5.30;;
23519;SDS011;11936;50.820;4.336;2023-11-21T14:48:28;11.20;;;4.97;;
23519;SDS011;11936;50.820;4.336;2023-11-21T14:51:12;8.90;;;5.25;;
23519;SDS011;11936;50.820;4.336;2023-11-21T14:53:53;7.45;;;5.03;;